Decoded Metar for LYUZ (UZICE PONIKVE in SERBIA) (IATA:N/A) | Meteo·Mobile Aviation Weather
aviador You're here:

LYUZ Decoded Metar

UZICE PONIKVE in SERBIA
Report Time2019-03-23 08:00:00
UTC Time2019-03-23 08:34:51
Flight Rules mvfr MVFR
Wind310° at 04 kt
W.Rank310° ranks 1
Current wind is below 310° avg. (7.2)
Visibility9999 m
Phenomena:N/A
Clouds:Broken 023 Hf
Expected CloudBase > 4,000 ft AGL from Temp-Dew spread
Ceiling2,300 ft
Temp07°C (ISA -2)
Dew Point-3°C (49% RH)
AAT3.2°C
QNH1027 hPa
Density Alt2,375 ft
Elevation3,012 ft
Report Wrong Elevation
Raw Report
METAR LYUZ 230800Z 31004KT 270V360 9999 BKN023 07/M03 Q1027=

Extra information for LYUZ:More info

Metar Taf Metar & Taf Last 4 Metars F.Rules Stats Wind Profile Meteogram Temp Stats Airport Information Weather charts Add Link Nearby VenuesMetar ALERT Operation Metar Decoded Social comments